Time;durP1;ratioP1;P1;durP2;ratioP2;P2;SDS_P1;SDS_P2;PMS_P1;PMS_P2;Temp;Humidity;BMP_temperature;BMP_pressure;BME280_temperature;BME280_humidity;BME280_pressure;Samples;Min_cycle;Max_cycle;Signal;HPM_P1;HPM_P2
2021/09/16 00:01:58;;;;;;;10.20;1.65;;;;;;;15.99;100.00;101421.50;5072325;28;20044;-38
2021/09/16 00:04:26;;;;;;;7.70;1.73;;;;;;;15.99;100.00;101427.13;5071509;28;20384;-37
2021/09/16 00:06:54;;;;;;;9.25;1.83;;;;;;;16.00;100.00;101426.00;5072192;28;20049;-39
2021/09/16 00:09:22;;;;;;;9.82;1.75;;;;;;;16.02;100.00;101415.25;5072270;28;20052;-41
2021/09/16 00:11:50;;;;;;;14.02;1.95;;;;;;;16.06;100.00;101424.72;5071603;28;20056;-34
2021/09/16 00:14:17;;;;;;;8.55;2.03;;;;;;;16.11;100.00;101420.94;5071757;28;20384;-41
2021/09/16 00:16:46;;;;;;;11.80;2.00;;;;;;;16.12;100.00;101431.88;5071573;28;20056;-37
2021/09/16 00:19:15;;;;;;;7.38;2.15;;;;;;;16.13;100.00;101422.28;5071458;28;20094;-33
2021/09/16 00:21:43;;;;;;;7.38;1.80;;;;;;;16.15;100.00;101425.59;5072216;28;20057;-37
2021/09/16 00:24:11;;;;;;;8.25;2.90;;;;;;;16.15;100.00;101422.78;5070958;28;20553;-35
2021/09/16 00:26:39;;;;;;;9.05;1.80;;;;;;;16.15;100.00;101425.59;5071842;28;20056;-40
2021/09/16 00:29:09;;;;;;;9.32;1.58;;;;;;;16.17;100.00;101426.13;5071470;28;20078;-33
2021/09/16 00:31:37;;;;;;;8.98;1.42;;;;;;;16.17;100.00;101426.13;5071167;28;20056;-40
2021/09/16 00:34:05;;;;;;;11.75;2.63;;;;;;;16.17;100.00;101428.94;5071552;28;20492;-39
2021/09/16 00:36:34;;;;;;;9.48;2.05;;;;;;;16.20;100.00;101433.06;5071812;28;20044;-38
2021/09/16 00:39:02;;;;;;;13.60;2.22;;;;;;;16.21;100.00;101420.63;5070929;28;20418;-35
2021/09/16 00:41:30;;;;;;;14.65;2.97;;;;;;;16.24;100.00;101433.25;5071472;28;20090;-38
2021/09/16 00:43:58;;;;;;;13.40;2.67;;;;;;;16.27;100.00;101436.25;5071174;28;20059;-36
2021/09/16 00:46:27;;;;;;;15.05;2.67;;;;;;;16.30;100.00;101431.97;5070948;28;20048;-35
2021/09/16 00:48:54;;;;;;;11.90;2.42;;;;;;;16.32;100.00;101441.75;5071279;28;20098;-41
2021/09/16 00:51:22;;;;;;;10.25;2.60;;;;;;;16.34;100.00;101439.44;5070229;28;20449;-38
2021/09/16 00:53:54;;;;;;;11.30;2.70;;;;;;;16.36;100.00;101439.13;5070890;28;20426;-36
2021/09/16 00:56:25;;;;;;;13.73;2.42;;;;;;;16.36;100.00;101442.78;5070880;28;20080;-38
2021/09/16 00:58:54;;;;;;;12.25;2.42;;;;;;;16.39;100.00;101449.72;5070800;28;20060;-38
2021/09/16 01:01:22;;;;;;;8.52;2.25;;;;;;;16.39;100.00;101450.53;5070939;28;20129;-38
2021/09/16 01:03:50;;;;;;;10.48;3.28;;;;;;;16.37;100.00;101450.06;5071300;28;20053;-37
2021/09/16 01:06:18;;;;;;;10.88;2.63;;;;;;;16.36;100.00;101453.22;5070578;28;20090;-34
2021/09/16 01:08:47;;;;;;;9.32;2.67;;;;;;;16.31;100.00;101445.72;5051157;28;20060;-41
2021/09/16 01:11:16;;;;;;;13.43;2.67;;;;;;;16.29;100.00;101455.66;5069622;28;20099;-33
2021/09/16 01:13:45;;;;;;;11.60;2.83;;;;;;;16.27;100.00;101450.34;5070777;28;20452;-37
2021/09/16 01:16:13;;;;;;;11.68;2.55;;;;;;;16.28;100.00;101442.72;5070787;28;20098;-38
2021/09/16 01:18:42;;;;;;;12.52;2.53;;;;;;;16.30;100.00;101448.84;5071229;28;20051;-37
2021/09/16 01:21:10;;;;;;;12.35;2.70;;;;;;;16.29;100.00;101448.03;5070116;28;20159;-38
2021/09/16 01:23:39;;;;;;;12.70;3.92;;;;;;;16.30;100.00;101449.69;5070990;28;20052;-38
2021/09/16 01:26:07;;;;;;;11.65;2.63;;;;;;;16.30;100.00;101451.69;5070414;28;20044;-36
2021/09/16 01:28:35;;;;;;;12.20;2.75;;;;;;;16.30;100.00;101452.50;5070656;28;20067;-38
2021/09/16 01:31:03;;;;;;;7.68;2.15;;;;;;;16.30;100.00;101448.84;5070489;28;20041;-41
2021/09/16 01:33:30;;;;;;;13.32;2.50;;;;;;;16.29;100.00;101436.75;5071141;28;20404;-34
2021/09/16 01:35:58;;;;;;;7.55;1.98;;;;;;;16.30;100.00;101432.78;5069942;28;20513;-35
2021/09/16 01:38:26;;;;;;;10.48;2.85;;;;;;;16.32;100.00;101452.19;5070786;28;20484;-41
2021/09/16 01:40:55;;;;;;;9.63;2.20;;;;;;;16.33;100.00;101453.84;5070586;28;20119;-39
2021/09/16 01:43:23;;;;;;;6.78;2.08;;;;;;;16.31;100.00;101453.34;5070239;28;20560;-35
2021/09/16 01:45:51;;;;;;;9.73;2.90;;;;;;;16.28;100.00;101448.34;5070752;28;20131;-42
2021/09/16 01:48:18;;;;;;;7.90;2.78;;;;;;;16.26;100.00;101448.66;5070143;28;20135;-33
2021/09/16 01:50:48;;;;;;;11.50;2.92;;;;;;;16.24;100.00;101436.91;5070644;28;20037;-44
2021/09/16 01:53:16;;;;;;;8.13;2.30;;;;;;;16.24;100.00;101450.16;5070484;28;20131;-35
2021/09/16 01:55:43;;;;;;;9.82;2.50;;;;;;;16.24;100.00;101455.78;5070210;28;20059;-36
2021/09/16 01:58:13;;;;;;;9.88;2.28;;;;;;;16.23;100.00;101448.47;5070724;28;20049;-39
2021/09/16 02:00:40;;;;;;;9.57;2.80;;;;;;;16.21;100.00;101445.97;5070530;28;20044;-37
2021/09/16 02:03:09;;;;;;;8.35;2.30;;;;;;;16.19;100.00;101457.56;5069980;28;20057;-38
2021/09/16 02:05:36;;;;;;;10.43;2.40;;;;;;;16.20;100.00;101449.94;5070619;28;20139;-35
2021/09/16 02:08:05;;;;;;;7.93;2.40;;;;;;;16.19;100.00;101454.75;5069724;28;20053;-35
2021/09/16 02:10:32;;;;;;;9.85;2.67;;;;;;;16.21;100.00;101462.88;5069992;28;20037;-39
2021/09/16 02:13:00;;;;;;;8.57;2.22;;;;;;;16.20;100.00;101459.22;5070168;28;20070;-38
2021/09/16 02:15:29;;;;;;;9.10;2.55;;;;;;;16.20;100.00;101456.41;5074506;28;20688;-35
2021/09/16 02:17:57;;;;;;;10.00;2.90;;;;;;;16.18;100.00;101458.75;5073315;28;20164;-38
2021/09/16 02:20:25;;;;;;;9.55;2.83;;;;;;;16.19;100.00;101465.19;5074299;28;20143;-40
2021/09/16 02:22:53;;;;;;;11.32;2.80;;;;;;;16.22;100.00;101466.53;5073834;28;20082;-44
2021/09/16 02:25:20;;;;;;;14.93;2.72;;;;;;;16.21;100.00;101465.69;5073779;28;20053;-36
2021/09/16 02:27:48;;;;;;;8.07;2.45;;;;;;;16.24;100.00;101469.84;5073762;28;20119;-39
2021/09/16 02:30:16;;;;;;;9.40;2.63;;;;;;;16.25;100.00;101469.53;5074013;28;20080;-35
2021/09/16 02:32:45;;;;;;;7.22;2.22;;;;;;;16.28;100.00;101468.06;5073783;28;20075;-38
2021/09/16 02:35:13;;;;;;;7.78;2.30;;;;;;;16.27;100.00;101484.13;5074118;28;20071;-37
2021/09/16 02:37:41;;;;;;;7.30;2.20;;;;;;;16.29;100.00;101486.63;5073086;28;20495;-41
2021/09/16 02:40:11;;;;;;;9.13;2.33;;;;;;;16.30;100.00;101488.28;5073978;28;20045;-35
2021/09/16 02:42:39;;;;;;;7.78;2.38;;;;;;;16.28;100.00;101480.16;5073566;28;20503;-40
2021/09/16 02:45:08;;;;;;;8.85;2.25;;;;;;;16.31;100.00;101489.94;5072105;28;20137;-35
2021/09/16 02:47:36;;;;;;;7.47;2.17;;;;;;;16.29;100.00;101487.47;5073563;28;20048;-35
2021/09/16 02:50:06;;;;;;;10.30;2.38;;;;;;;16.29;100.00;101493.09;5073426;28;20049;-32
2021/09/16 02:52:34;;;;;;;9.20;2.30;;;;;;;16.27;100.00;101486.13;5073271;28;20044;-39
2021/09/16 02:55:01;;;;;;;8.02;1.98;;;;;;;16.25;100.00;101491.22;5073183;28;20093;-39
2021/09/16 02:57:29;;;;;;;5.63;2.30;;;;;;;16.23;100.00;101491.56;5073402;28;20482;-36
2021/09/16 02:59:58;;;;;;;6.32;2.00;;;;;;;16.22;100.00;101497.50;5072896;28;20106;-40
2021/09/16 03:02:25;;;;;;;6.80;1.70;;;;;;;16.18;100.00;101486.06;5073536;28;20044;-34
2021/09/16 03:04:53;;;;;;;7.47;1.90;;;;;;;16.16;100.00;101499.66;5073110;28;20489;-39
2021/09/16 03:07:22;;;;;;;11.27;2.72;;;;;;;16.15;100.00;101500.78;5072866;28;20098;-41
2021/09/16 03:09:50;;;;;;;7.20;1.80;;;;;;;16.13;100.00;101501.13;5073058;28;20056;-42
2021/09/16 03:12:18;;;;;;;7.22;1.88;;;;;;;16.13;100.00;101500.28;5073584;28;20572;-31
2021/09/16 03:14:46;;;;;;;7.13;1.88;;;;;;;16.12;100.00;101504.25;5072539;28;20064;-37
2021/09/16 03:17:14;;;;;;;6.40;1.90;;;;;;;16.11;100.00;101496.94;5073173;28;20032;-38
2021/09/16 03:19:41;;;;;;;5.65;1.95;;;;;;;16.12;100.00;101507.06;5072218;28;20130;-44
2021/09/16 03:22:09;;;;;;;8.80;2.00;;;;;;;16.12;100.00;101505.09;5073223;28;20053;-44
2021/09/16 03:24:39;;;;;;;5.55;1.48;;;;;;;16.12;100.00;101510.72;5071975;28;20123;-32
2021/09/16 03:27:07;;;;;;;7.72;2.10;;;;;;;16.13;100.00;101505.91;5061260;28;20044;-38
2021/09/16 03:29:35;;;;;;;5.57;1.95;;;;;;;16.14;100.00;101499.97;5072653;28;20139;-39
2021/09/16 03:32:03;;;;;;;9.38;1.92;;;;;;;16.16;100.00;101502.47;5073078;28;20414;-35
2021/09/16 03:34:30;;;;;;;8.60;1.77;;;;;;;16.16;100.00;101505.28;5072099;28;20048;-39
2021/09/16 03:36:58;;;;;;;10.82;1.80;;;;;;;16.17;100.00;101499.31;5069377;28;20464;-39
2021/09/16 03:39:27;;;;;;;6.65;1.52;;;;;;;16.20;100.00;101500.63;5072972;28;20060;-34
2021/09/16 03:41:56;;;;;;;5.32;1.38;;;;;;;16.20;100.00;101501.47;5072093;28;20056;-40
2021/09/16 03:44:24;;;;;;;5.53;1.67;;;;;;;16.22;100.00;101509.59;5073254;28;20151;-33
2021/09/16 03:46:53;;;;;;;6.07;1.52;;;;;;;16.22;100.00;101511.59;5072689;28;20471;-37
2021/09/16 03:49:21;;;;;;;6.35;1.10;;;;;;;16.19;100.00;101516.69;5071976;28;20056;-37
2021/09/16 03:51:49;;;;;;;6.15;1.48;;;;;;;16.17;100.00;101519.03;5072259;28;20265;-33
2021/09/16 03:54:17;;;;;;;6.90;1.30;;;;;;;16.16;100.00;101510.91;5072705;28;20048;-41
2021/09/16 03:56:44;;;;;;;6.18;1.67;;;;;;;16.14;100.00;101514.03;5071797;28;20051;-35
2021/09/16 03:59:14;;;;;;;5.75;1.42;;;;;;;16.13;100.00;101515.19;5072411;28;20148;-39
2021/09/16 04:01:41;;;;;;;7.20;1.88;;;;;;;16.11;100.00;101523.13;5071990;28;20095;-36
2021/09/16 04:04:09;;;;;;;9.18;1.60;;;;;;;16.09;100.00;101511.34;5072032;28;20396;-34
2021/09/16 04:06:37;;;;;;;6.32;1.40;;;;;;;16.07;100.00;101522.09;5071890;28;20480;-33
2021/09/16 04:09:05;;;;;;;11.00;1.42;;;;;;;16.07;100.00;101535.34;5071581;28;20102;-37
2021/09/16 04:11:33;;;;;;;5.05;1.10;;;;;;;16.04;100.00;101539.63;5071822;28;20083;-36
2021/09/16 04:14:00;;;;;;;7.43;1.45;;;;;;;16.03;100.00;101539.94;5072320;28;20441;-35
2021/09/16 04:16:30;;;;;;;4.45;1.20;;;;;;;16.00;100.00;101532.97;5071054;28;20052;-35
2021/09/16 04:18:58;;;;;;;4.32;1.30;;;;;;;15.99;100.00;101534.13;5072063;28;20579;-33
2021/09/16 04:21:26;;;;;;;4.57;1.10;;;;;;;15.97;100.00;101538.44;5071721;28;20045;-32
2021/09/16 04:23:53;;;;;;;7.25;1.30;;;;;;;15.96;100.00;101531.97;5071505;28;20055;-36
2021/09/16 04:26:21;;;;;;;6.57;1.10;;;;;;;15.96;100.00;101529.16;5071465;28;20048;-35
2021/09/16 04:28:49;;;;;;;6.28;0.98;;;;;;;15.98;100.00;101537.28;5071789;28;20047;-40
2021/09/16 04:31:17;;;;;;;5.05;1.08;;;;;;;15.98;100.00;101532.47;5071033;28;20420;-39
2021/09/16 04:33:46;;;;;;;6.57;1.45;;;;;;;15.97;100.00;101530.81;5071977;28;20042;-37
2021/09/16 04:36:14;;;;;;;5.68;1.00;;;;;;;15.95;100.00;101533.13;5071091;28;20601;-37
2021/09/16 04:38:42;;;;;;;8.88;1.20;;;;;;;15.95;100.00;101529.47;5070884;28;20170;-41
2021/09/16 04:41:09;;;;;;;5.30;1.23;;;;;;;15.94;100.00;101524.97;5071596;28;20506;-38
2021/09/16 04:43:37;;;;;;;7.55;1.70;;;;;;;15.95;100.00;101537.91;5070984;28;20048;-38
2021/09/16 04:46:05;;;;;;;5.78;1.15;;;;;;;15.97;100.00;101535.63;5071019;28;20078;-36
2021/09/16 04:48:33;;;;;;;6.75;1.50;;;;;;;15.96;100.00;101534.78;5071137;28;20141;-34
2021/09/16 04:51:02;;;;;;;6.82;1.42;;;;;;;15.97;99.93;101535.63;5070203;28;20118;-38
2021/09/16 04:53:30;;;;;;;4.35;1.10;;;;;;;15.97;99.66;101539.25;5069731;28;20045;-40
2021/09/16 04:55:58;;;;;;;4.82;1.13;;;;;;;15.98;99.44;101540.94;5071391;28;20130;-40
2021/09/16 04:58:25;;;;;;;10.90;1.45;;;;;;;15.96;98.94;101540.41;5070138;28;20590;-40
2021/09/16 05:00:53;;;;;;;7.90;1.40;;;;;;;15.97;98.45;101544.06;5071097;28;20051;-36
2021/09/16 05:03:21;;;;;;;7.72;1.60;;;;;;;15.94;98.09;101544.69;5070884;28;20050;-41
2021/09/16 05:05:49;;;;;;;8.75;1.35;;;;;;;15.94;97.63;101558.75;5070672;28;20495;-39
2021/09/16 05:08:18;;;;;;;7.53;1.08;;;;;;;15.90;97.29;101552.94;5070728;28;20079;-35
2021/09/16 05:10:46;;;;;;;6.07;1.20;;;;;;;15.88;96.97;101555.22;5070891;28;20059;-37
2021/09/16 05:13:14;;;;;;;6.15;0.95;;;;;;;15.88;96.70;101560.84;5069733;28;20131;-38
2021/09/16 05:15:42;;;;;;;6.53;1.02;;;;;;;15.87;96.51;101564.00;5071062;28;20060;-34
2021/09/16 05:18:10;;;;;;;5.45;1.05;;;;;;;15.87;96.18;101567.63;5070423;28;20048;-38
2021/09/16 05:20:37;;;;;;;4.43;1.00;;;;;;;15.85;96.23;101564.31;5070236;28;20083;-33
2021/09/16 05:23:05;;;;;;;4.65;1.05;;;;;;;15.84;95.93;101568.28;5070650;28;20078;-35
2021/09/16 05:25:34;;;;;;;4.00;0.95;;;;;;;15.82;95.50;101570.56;5070786;28;20086;-40
2021/09/16 05:28:02;;;;;;;6.35;1.02;;;;;;;15.82;95.23;101584.63;5070505;28;20070;-39
2021/09/16 05:30:30;;;;;;;4.90;1.00;;;;;;;15.80;95.38;101576.50;5070732;28;20048;-36
2021/09/16 05:32:58;;;;;;;6.00;1.00;;;;;;;15.81;95.37;101577.34;5070810;28;20556;-37
2021/09/16 05:35:26;;;;;;;5.22;1.08;;;;;;;15.82;95.52;101584.63;5070169;28;20052;-41
2021/09/16 05:37:58;;;;;;;5.25;0.90;;;;;;;15.81;95.43;101583.81;5071044;28;20088;-42
2021/09/16 05:40:25;;;;;;;;;;;;;;;15.75;94.74;101584.25;5067831;28;20044;-39
2021/09/16 05:42:55;;;;;;;2.75;0.70;;;;;;;15.72;95.53;101587.69;5051010;28;19963;-34
2021/09/16 05:45:23;;;;;;;4.68;1.10;;;;;;;15.76;95.30;101591.56;5069472;28;20066;-34
2021/09/16 05:47:50;;;;;;;4.07;0.95;;;;;;;15.78;95.30;101589.25;5070367;28;20161;-40
2021/09/16 05:50:18;;;;;;;3.97;1.17;;;;;;;15.78;95.15;101590.09;5074072;28;20044;-32
2021/09/16 05:52:46;;;;;;;3.45;1.00;;;;;;;15.79;94.86;101596.53;5075208;28;20068;-40
2021/09/16 05:55:14;;;;;;;5.78;0.90;;;;;;;15.78;94.78;101592.06;5074210;28;20128;-35
2021/09/16 05:57:42;;;;;;;3.95;1.27;;;;;;;15.78;94.72;101590.09;5074786;28;20052;-37
2021/09/16 06:00:13;;;;;;;3.42;0.82;;;;;;;15.81;94.86;101597.03;5074640;28;20049;-35
2021/09/16 06:02:40;;;;;;;5.55;1.05;;;;;;;15.81;94.85;101606.31;5074073;28;20072;-40
2021/09/16 06:05:09;;;;;;;4.57;1.08;;;;;;;15.86;94.68;101591.31;5074434;28;20036;-37
2021/09/16 06:07:37;;;;;;;4.93;1.30;;;;;;;15.89;94.68;101601.94;5074497;28;20053;-41
2021/09/16 06:10:06;;;;;;;4.35;1.00;;;;;;;15.91;94.31;101596.00;5073928;28;20048;-36
2021/09/16 06:12:34;;;;;;;3.53;0.88;;;;;;;15.89;94.04;101601.09;5074099;28;20400;-36
2021/09/16 06:15:02;;;;;;;4.93;0.70;;;;;;;15.89;93.85;101598.28;5072216;28;20511;-36
2021/09/16 06:17:31;;;;;;;6.20;1.17;;;;;;;15.90;93.87;101608.41;5071665;28;20135;-39
2021/09/16 06:19:59;;;;;;;7.05;1.45;;;;;;;15.92;93.85;101617.34;5074496;28;20048;-33
2021/09/16 06:22:27;;;;;;;5.13;0.95;;;;;;;15.92;93.74;101623.00;5073885;28;20144;-31
2021/09/16 06:24:55;;;;;;;6.32;1.00;;;;;;;15.93;93.75;101613.41;5073919;28;20091;-33
2021/09/16 06:27:23;;;;;;;5.00;1.27;;;;;;;15.93;93.71;101624.66;5073983;28;20086;-40
2021/09/16 06:29:51;;;;;;;3.83;0.95;;;;;;;15.94;93.47;101610.25;5073531;28;20501;-39
2021/09/16 06:32:19;;;;;;;2.47;0.80;;;;;;;15.95;93.60;101605.47;5073995;28;20094;-38
2021/09/16 06:34:51;;;;;;;6.95;1.00;;;;;;;15.97;93.22;101615.25;5072775;28;20052;-39
2021/09/16 06:37:18;;;;;;;5.35;0.80;;;;;;;15.99;92.84;101620.53;5070787;28;20195;-36
2021/09/16 06:39:47;;;;;;;3.90;0.90;;;;;;;16.02;92.71;101629.19;5073234;28;20056;-34
2021/09/16 06:42:15;;;;;;;4.30;1.00;;;;;;;16.04;92.45;101626.06;5071455;28;20045;-38
2021/09/16 06:44:43;;;;;;;3.95;0.80;;;;;;;16.06;92.12;101626.59;5072422;28;20044;-37
2021/09/16 06:47:10;;;;;;;4.15;1.05;;;;;;;16.14;92.18;101623.88;5072948;28;20098;-35
2021/09/16 06:49:46;;;;;;;3.33;0.88;;;;;;;16.34;91.71;101630.97;5073195;28;20076;-38
2021/09/16 06:52:16;;;;;;;4.88;1.20;;;;;;;16.59;91.03;101629.47;5072268;28;20478;-36
2021/09/16 06:54:44;;;;;;;4.72;1.02;;;;;;;16.88;90.06;101629.03;5073064;28;20540;-34
2021/09/16 06:57:12;;;;;;;3.55;0.90;;;;;;;17.26;89.02;101628.56;5072295;28;20072;-38
2021/09/16 06:59:40;;;;;;;4.00;0.90;;;;;;;17.65;87.25;101633.38;5072200;28;20078;-35
2021/09/16 07:02:08;;;;;;;4.70;0.55;;;;;;;18.02;85.69;101638.41;5088148;28;20407;-37
2021/09/16 07:04:39;;;;;;;2.70;0.70;;;;;;;18.39;84.30;101638.94;5072359;28;20048;-36
2021/09/16 07:07:11;;;;;;;;;;;;;;;18.66;82.08;101643.44;5072599;28;20131;-40
2021/09/16 07:09:40;;;;;;;5.68;1.40;;;;;;;18.89;81.80;101642.88;5072563;28;19931;-39
2021/09/16 07:12:08;;;;;;;2.67;0.70;;;;;;;19.20;79.71;101636.13;5070864;28;20048;-38
2021/09/16 07:14:36;;;;;;;2.08;0.70;;;;;;;19.52;78.55;101638.34;5070091;28;20072;-38
2021/09/16 07:17:04;;;;;;;2.97;0.60;;;;;;;19.88;77.46;101636.97;5072267;28;20079;-42
2021/09/16 07:19:32;;;;;;;2.25;0.70;;;;;;;20.32;75.95;101631.81;5071685;28;20056;-39
2021/09/16 07:22:00;;;;;;;3.60;0.80;;;;;;;20.69;74.25;101638.50;5072037;28;20131;-38
2021/09/16 07:24:28;;;;;;;3.78;1.02;;;;;;;20.81;72.66;101642.19;5072534;28;20482;-34
2021/09/16 07:26:57;;;;;;;2.58;1.08;;;;;;;20.92;72.11;101643.44;5071521;28;20045;-37
2021/09/16 07:29:26;;;;;;;2.05;0.60;;;;;;;21.25;71.65;101651.91;5071490;28;20087;-40
2021/09/16 07:31:54;;;;;;;3.30;0.82;;;;;;;21.64;69.98;101656.09;5072149;28;20036;-37
2021/09/16 07:34:22;;;;;;;2.35;0.80;;;;;;;22.06;68.83;101658.69;5070726;28;20091;-36
2021/09/16 07:36:50;;;;;;;2.50;0.50;;;;;;;22.58;67.02;101666.38;5071692;28;20102;-36
2021/09/16 07:39:21;;;;;;;3.70;0.73;;;;;;;23.14;65.31;101666.38;5068549;28;20129;-38
2021/09/16 07:41:49;;;;;;;3.10;0.70;;;;;;;23.67;63.58;101657.22;5071743;28;20051;-40
2021/09/16 07:44:19;;;;;;;1.73;0.63;;;;;;;24.08;61.79;101671.22;5071252;28;20058;-38
2021/09/16 07:46:48;;;;;;;3.53;0.70;;;;;;;24.00;60.91;101673.06;5072302;28;20473;-39
2021/09/16 07:49:27;;;;;;;3.42;0.90;;;;;;;23.72;61.14;101670.38;5072067;28;20062;-38
2021/09/16 07:51:54;;;;;;;2.92;0.85;;;;;;;23.73;61.12;101672.03;5071056;28;20044;-37
2021/09/16 07:54:23;;;;;;;2.60;0.75;;;;;;;23.88;60.37;101673.19;5070213;28;20052;-33
2021/09/16 07:56:50;;;;;;;4.28;0.82;;;;;;;24.00;59.90;101670.22;5071819;28;20439;-41
2021/09/16 07:59:20;;;;;;;2.75;0.80;;;;;;;23.84;59.65;101672.28;5071338;28;20063;-41
2021/09/16 08:01:48;;;;;;;2.40;0.80;;;;;;;23.58;60.38;101670.00;5071203;28;20060;-35
2021/09/16 08:04:16;;;;;;;2.75;0.80;;;;;;;23.26;60.84;101687.03;5071314;28;20097;-38
2021/09/16 08:06:44;;;;;;;2.58;0.70;;;;;;;22.90;61.58;101695.78;5072021;28;20059;-40
2021/09/16 08:09:12;;;;;;;3.35;0.80;;;;;;;22.54;62.03;101694.72;5071165;28;20067;-38
2021/09/16 08:11:40;;;;;;;2.40;0.60;;;;;;;22.18;62.92;101689.94;5071448;28;20048;-35
2021/09/16 08:14:08;;;;;;;3.35;0.60;;;;;;;21.82;63.82;101696.44;5071604;28;20494;-35
2021/09/16 08:16:38;;;;;;;2.08;0.60;;;;;;;21.48;65.06;101692.06;5071817;28;20048;-43
2021/09/16 08:19:07;;;;;;;3.25;0.75;;;;;;;21.30;65.72;101694.28;5071635;28;20045;-36
2021/09/16 08:21:35;;;;;;;3.00;0.90;;;;;;;21.16;66.15;101692.94;5072649;28;20052;-38
2021/09/16 08:24:04;;;;;;;3.03;0.80;;;;;;;21.03;66.25;101688.38;5071198;28;20095;-38
2021/09/16 08:26:33;;;;;;;2.63;0.60;;;;;;;20.92;66.92;101686.00;5071516;28;20052;-42
2021/09/16 08:29:01;;;;;;;2.70;1.02;;;;;;;20.93;67.19;101683.97;5071671;28;20148;-39
2021/09/16 08:31:29;;;;;;;1.67;0.52;;;;;;;20.91;66.99;101690.00;5070968;28;20434;-40
2021/09/16 08:33:58;;;;;;;2.72;0.70;;;;;;;20.84;66.93;101686.91;5071670;28;20053;-35
2021/09/16 08:36:26;;;;;;;1.63;0.70;;;;;;;20.99;67.85;101689.06;5070998;28;20044;-37
2021/09/16 08:38:54;;;;;;;2.70;0.63;;;;;;;21.43;66.95;101700.81;5071510;28;20052;-38
2021/09/16 08:41:22;;;;;;;2.50;0.80;;;;;;;21.71;66.05;101700.13;5071202;28;20076;-42
2021/09/16 08:43:51;;;;;;;2.95;0.80;;;;;;;21.94;65.37;101707.00;5071246;28;20059;-43
2021/09/16 08:46:19;;;;;;;3.33;0.90;;;;;;;22.41;64.33;101700.78;5071248;28;20048;-37
2021/09/16 08:48:47;;;;;;;3.25;0.77;;;;;;;22.78;62.70;101710.09;5071724;28;20411;-35
2021/09/16 08:51:17;;;;;;;2.47;0.70;;;;;;;23.10;62.10;101706.13;5070420;28;20120;-37
2021/09/16 08:53:47;;;;;;;2.45;0.70;;;;;;;23.12;61.68;101708.63;5071393;28;20059;-37
2021/09/16 08:56:16;;;;;;;3.00;0.70;;;;;;;22.95;61.37;101706.94;5070947;28;20044;-42
2021/09/16 08:58:46;;;;;;;2.53;0.70;;;;;;;22.83;61.72;101716.31;5070926;28;20469;-39
2021/09/16 09:01:15;;;;;;;2.63;0.70;;;;;;;22.68;62.24;101712.22;5070913;28;20518;-37
2021/09/16 09:03:44;;;;;;;2.95;0.80;;;;;;;22.54;62.72;101708.13;5071287;28;20063;-37
2021/09/16 09:06:28;;;;;;;3.05;0.73;;;;;;;22.44;62.24;101722.81;5070024;28;20040;-38
2021/09/16 09:09:22;;;;;;;2.55;0.80;;;;;;;22.28;61.93;101720.72;5071229;28;20137;-37
2021/09/16 09:11:56;;;;;;;3.13;0.90;;;;;;;22.18;62.78;101721.19;5034585;28;20052;-40
2021/09/16 09:14:26;;;;;;;2.20;0.77;;;;;;;22.13;62.94;101717.78;5071172;28;20087;-36
2021/09/16 09:16:54;;;;;;;2.60;0.82;;;;;;;21.99;63.07;101723.78;5070898;28;20109;-36
2021/09/16 09:19:24;;;;;;;1.50;0.60;;;;;;;21.86;63.66;101725.00;5070725;28;20051;-36
2021/09/16 09:21:54;;;;;;;2.20;0.70;;;;;;;21.93;63.80;101722.41;5069555;28;20097;-34
2021/09/16 09:24:30;;;;;;;1.95;0.70;;;;;;;22.18;63.11;101726.88;5070870;28;20114;-36
2021/09/16 09:26:58;;;;;;;2.35;0.75;;;;;;;22.40;62.42;101728.41;5070059;28;20044;-38
2021/09/16 09:29:26;;;;;;;2.42;0.80;;;;;;;22.66;61.91;101730.81;5071329;28;20088;-40
2021/09/16 09:32:15;;;;;;;3.40;0.80;;;;;;;22.69;61.60;101730.94;5070393;28;20392;-40
2021/09/16 09:34:44;;;;;;;2.13;0.70;;;;;;;22.69;61.51;101735.81;5071208;28;20044;-37
2021/09/16 09:37:18;;;;;;;3.28;0.80;;;;;;;22.62;61.33;101736.41;5070503;28;20437;-35
2021/09/16 09:39:48;;;;;;;3.25;1.00;;;;;;;22.49;61.53;101742.50;5070678;28;20041;-40
2021/09/16 09:42:20;;;;;;;2.95;0.90;;;;;;;22.30;61.91;101740.28;5070419;28;20040;-41
2021/09/16 09:44:49;;;;;;;3.17;0.68;;;;;;;22.15;62.85;101741.84;5070886;28;20166;-39
2021/09/16 09:47:35;;;;;;;1.65;0.65;;;;;;;22.08;63.13;101733.06;5069850;28;20434;-37
2021/09/16 09:50:06;;;;;;;4.07;0.70;;;;;;;21.98;63.87;101744.91;5061637;28;20080;-39
2021/09/16 09:52:35;;;;;;;2.17;0.60;;;;;;;21.89;64.36;101736.47;5070391;28;20060;-40
2021/09/16 09:55:12;;;;;;;2.63;1.00;;;;;;;21.79;64.51;101741.78;5070450;28;20135;-40
2021/09/16 09:57:40;;;;;;;3.05;0.85;;;;;;;21.69;65.54;101731.72;5070828;28;20041;-35
2021/09/16 10:00:10;;;;;;;3.15;0.80;;;;;;;21.84;65.77;101744.41;5070619;28;20090;-36
2021/09/16 10:02:44;;;;;;;4.35;1.17;;;;;;;22.28;64.74;101739.81;5069838;28;20041;-40
2021/09/16 10:05:24;;;;;;;3.03;0.80;;;;;;;22.77;63.23;101748.25;5070434;28;20530;-36
2021/09/16 10:07:54;;;;;;;2.97;0.80;;;;;;;22.99;62.71;101742.81;5069787;28;20163;-38
2021/09/16 10:10:23;;;;;;;2.88;0.88;;;;;;;22.97;61.83;101741.56;5070660;28;20576;-39
2021/09/16 10:12:54;;;;;;;2.35;0.70;;;;;;;22.90;62.29;101752.72;5069953;28;20053;-38
2021/09/16 10:15:23;;;;;;;1.95;0.65;;;;;;;22.97;62.28;101753.78;5070109;28;20079;-40
2021/09/16 10:17:53;;;;;;;2.47;0.60;;;;;;;23.17;61.37;101757.59;5070216;28;20094;-37
2021/09/16 10:20:24;;;;;;;2.65;0.70;;;;;;;23.29;61.03;101748.97;5070320;28;20098;-36
2021/09/16 10:23:00;;;;;;;2.10;0.70;;;;;;;23.34;60.25;101759.28;5069692;28;20049;-38
2021/09/16 10:25:29;;;;;;;2.45;0.70;;;;;;;23.22;60.19;101753.63;5069322;28;20147;-34
2021/09/16 10:28:00;;;;;;;3.75;0.80;;;;;;;23.03;60.25;101758.00;5070352;28;20042;-41
2021/09/16 10:30:38;;;;;;;3.35;1.00;;;;;;;22.95;60.57;101755.31;5069349;28;20072;-38
2021/09/16 10:33:14;;;;;;;1.98;0.60;;;;;;;23.04;61.52;101758.81;5069061;28;20109;-38
2021/09/16 10:35:45;;;;;;;2.28;0.65;;;;;;;23.25;61.02;101762.28;5071846;28;20044;-34
2021/09/16 10:38:26;;;;;;;1.50;0.50;;;;;;;23.32;60.71;101758.81;5073817;28;20121;-37
2021/09/16 10:41:18;;;;;;;2.33;0.80;;;;;;;23.33;60.11;101766.19;5073835;28;20044;-37
2021/09/16 10:43:47;;;;;;;1.92;0.60;;;;;;;23.22;60.43;101770.72;5073064;28;20499;-39
2021/09/16 10:46:28;;;;;;;2.65;0.63;;;;;;;23.17;60.54;101771.00;5073557;28;20065;-41
2021/09/16 10:48:58;;;;;;;2.30;0.60;;;;;;;23.17;60.62;101768.16;5073485;28;20059;-38
2021/09/16 10:51:37;;;;;;;2.08;0.60;;;;;;;23.15;60.49;101759.97;5068400;28;20415;-39
2021/09/16 10:54:34;;;;;;;2.97;0.70;;;;;;;23.22;60.80;101763.00;5073492;28;20135;-39
2021/09/16 10:57:04;;;;;;;3.78;0.80;;;;;;;23.49;60.42;101751.94;5073362;28;20079;-35
2021/09/16 11:00:08;;;;;;;2.67;0.60;;;;;;;23.77;59.28;101763.31;5073285;28;20072;-39
2021/09/16 11:03:06;;;;;;;2.38;0.63;;;;;;;23.75;58.47;101760.84;5065400;28;20099;-36
2021/09/16 11:05:50;;;;;;;1.95;0.60;;;;;;;23.75;59.29;101755.13;5010360;28;20049;-37
2021/09/16 11:08:20;;;;;;;1.50;0.50;;;;;;;23.79;59.15;101756.03;5066770;28;20057;-38
2021/09/16 11:11:00;;;;;;;3.58;0.70;;;;;;;23.96;58.96;101749.16;5072617;28;20039;-38
2021/09/16 11:13:34;;;;;;;3.60;1.05;;;;;;;24.23;58.60;101750.22;5073441;28;20048;-41
2021/09/16 11:16:02;;;;;;;1.92;0.45;;;;;;;24.36;58.17;101751.78;5073363;28;20053;-40
2021/09/16 11:18:46;;;;;;;3.05;0.80;;;;;;;24.63;57.28;101749.94;5073064;28;20149;-42
2021/09/16 11:21:14;;;;;;;2.40;0.50;;;;;;;24.85;56.97;101760.63;5072681;28;20044;-39
2021/09/16 11:23:44;;;;;;;3.63;0.75;;;;;;;24.85;55.49;101757.78;5073265;28;20135;-40
2021/09/16 11:26:19;;;;;;;2.28;0.60;;;;;;;24.83;55.60;101762.22;5072302;28;20127;-36
2021/09/16 11:29:06;;;;;;;2.05;0.60;;;;;;;24.65;53.49;101765.50;5073373;28;20517;-40
2021/09/16 11:31:34;;;;;;;1.80;0.40;;;;;;;24.39;56.19;101779.56;5072617;28;20048;-36
2021/09/16 11:34:11;;;;;;;2.97;0.68;;;;;;;24.45;55.70;101771.53;5072470;28;20052;-38